Time;durP1;ratioP1;P1;durP2;ratioP2;P2;SDS_P1;SDS_P2;PMS_P1;PMS_P2;Temp;Humidity;BMP_temperature;BMP_pressure;BME280_temperature;BME280_humidity;BME280_pressure;Samples;Min_cycle;Max_cycle;Signal;HPM_P1;HPM_P2
2024/01/07 00:01:30;;;;;;;;;;;4.30;99.90;;;;;;7333779;19;109990;-72
2024/01/07 00:03:57;;;;;;;;;;;4.30;99.90;;;;;;7328908;19;111161;-73
2024/01/07 00:06:24;;;;;;;;;;;4.30;99.90;;;;;;7334608;19;108413;-72
2024/01/07 00:08:51;;;;;;;;;;;4.40;99.90;;;;;;7336928;19;108603;-71
2024/01/07 00:11:18;;;;;;;;;;;4.40;99.90;;;;;;7334827;19;108961;-71
2024/01/07 00:13:46;;;;;;;;;;;4.50;99.90;;;;;;7330647;19;108466;-70
2024/01/07 00:16:13;;;;;;;;;;;4.50;99.90;;;;;;7336340;19;109681;-70
2024/01/07 00:18:40;;;;;;;;;;;4.50;99.90;;;;;;7334214;19;108379;-71
2024/01/07 00:21:07;;;;;;;;;;;4.30;99.90;;;;;;7329107;19;110937;-70
2024/01/07 00:23:34;;;;;;;;;;;4.20;99.90;;;;;;7333294;19;109388;-70
2024/01/07 00:26:03;;;;;;;;;;;4.20;99.90;;;;;;7331382;19;108398;-70
2024/01/07 00:28:30;;;;;;;;;;;4.20;99.90;;;;;;7337691;19;109629;-70
2024/01/07 00:30:57;;;;;;;;;;;4.30;99.90;;;;;;7333143;19;108815;-70
2024/01/07 00:33:24;;;;;;;;;;;4.20;99.90;;;;;;7333351;19;109965;-70
2024/01/07 00:35:52;;;;;;;;;;;4.20;99.90;;;;;;7332254;19;109332;-70
2024/01/07 00:38:18;;;;;;;;;;;4.30;99.90;;;;;;7329248;19;109705;-70
2024/01/07 00:40:46;;;;;;;;;;;4.30;99.90;;;;;;7332798;19;109343;-71
2024/01/07 00:43:13;;;;;;;;;;;4.40;99.90;;;;;;7329209;19;109169;-70
2024/01/07 00:45:40;;;;;;;;;;;4.40;99.90;;;;;;7329924;19;109692;-70
2024/01/07 00:48:07;;;;;;;;;;;4.30;99.90;;;;;;7333340;19;109571;-70
2024/01/07 00:50:34;;;;;;;;;;;4.20;99.90;;;;;;7337197;19;109158;-70
2024/01/07 00:53:02;;;;;;;;;;;4.10;99.90;;;;;;7330549;19;109054;-70
2024/01/07 00:55:29;;;;;;;;;;;4.10;99.90;;;;;;7332812;19;109243;-69
2024/01/07 00:57:56;;;;;;;;;;;4.10;99.90;;;;;;7331543;19;109676;-69
2024/01/07 01:00:23;;;;;;;;;;;4.10;99.90;;;;;;7331690;19;110314;-70
2024/01/07 01:02:50;;;;;;;;;;;4.10;99.90;;;;;;7331047;19;110787;-70
2024/01/07 01:05:17;;;;;;;;;;;4.20;99.90;;;;;;7330512;19;109932;-69
2024/01/07 01:07:44;;;;;;;;;;;4.10;99.90;;;;;;7329523;19;109317;-70
2024/01/07 01:10:13;;;;;;;;;;;4.10;99.90;;;;;;7331920;19;109252;-70
2024/01/07 01:12:40;;;;;;;;;;;4.10;99.90;;;;;;7337542;19;108535;-70
2024/01/07 01:15:07;;;;;;;;;;;4.10;99.90;;;;;;7331050;19;110460;-70
2024/01/07 01:17:34;;;;;;;;;;;4.20;99.90;;;;;;7332536;19;108820;-70
2024/01/07 01:20:01;;;;;;;;;;;4.10;99.90;;;;;;7329348;19;109194;-70
2024/01/07 01:22:29;;;;;;;;;;;4.00;99.90;;;;;;7331856;19;109332;-70
2024/01/07 01:24:56;;;;;;;;;;;4.00;99.90;;;;;;7327745;19;110606;-70
2024/01/07 01:27:23;;;;;;;;;;;4.00;99.90;;;;;;7331569;19;109188;-70
2024/01/07 01:29:50;;;;;;;;;;;3.90;99.90;;;;;;7329768;19;109854;-70
2024/01/07 01:32:17;;;;;;;;;;;3.90;99.90;;;;;;7332349;19;109394;-70
2024/01/07 01:34:44;;;;;;;;;;;3.90;99.90;;;;;;7334360;19;109305;-70
2024/01/07 01:37:12;;;;;;;;;;;3.80;99.90;;;;;;7331047;19;109002;-69
2024/01/07 01:39:40;;;;;;;;;;;3.90;99.90;;;;;;7333049;19;109385;-70
2024/01/07 01:42:07;;;;;;;;;;;3.80;99.90;;;;;;7329484;19;110011;-70
2024/01/07 01:44:34;;;;;;;;;;;3.80;99.90;;;;;;7329246;19;108934;-70
2024/01/07 01:47:01;;;;;;;;;;;3.80;99.90;;;;;;7329962;19;109172;-69
2024/01/07 01:49:29;;;;;;;;;;;3.80;99.90;;;;;;7330931;19;109608;-70
2024/01/07 01:51:56;;;;;;;;;;;3.80;99.90;;;;;;7329143;19;109262;-70
2024/01/07 01:54:24;;;;;;;;;;;3.70;99.90;;;;;;7329014;19;111311;-69
2024/01/07 01:56:51;;;;;;;;;;;3.80;99.90;;;;;;7336162;19;110699;-70
2024/01/07 01:59:19;;;;;;;;;;;3.70;99.90;;;;;;7330652;19;109778;-70
2024/01/07 02:01:46;;;;;;;;;;;3.70;99.90;;;;;;7327014;19;110967;-70
2024/01/07 02:04:15;;;;;;;;;;;3.70;99.90;;;;;;7328625;19;109479;-70
2024/01/07 02:06:42;;;;;;;;;;;3.70;99.90;;;;;;7332198;19;109082;-70
2024/01/07 02:09:09;;;;;;;;;;;3.70;99.90;;;;;;7329828;19;109199;-72
2024/01/07 02:11:36;;;;;;;;;;;3.60;99.90;;;;;;7327209;19;108718;-69
2024/01/07 02:14:03;;;;;;;;;;;3.60;99.90;;;;;;7327787;19;109128;-70
2024/01/07 02:16:30;;;;;;;;;;;3.60;99.90;;;;;;7327393;19;110333;-70
2024/01/07 02:18:57;;;;;;;;;;;3.60;99.90;;;;;;7335869;19;109130;-72
2024/01/07 02:21:25;;;;;;;;;;;3.60;99.90;;;;;;7329388;19;109564;-73
2024/01/07 02:23:52;;;;;;;;;;;3.50;99.90;;;;;;7330445;19;108855;-72
2024/01/07 02:26:19;;;;;;;;;;;3.50;99.90;;;;;;7330352;19;108857;-72
2024/01/07 02:28:46;;;;;;;;;;;3.50;99.90;;;;;;7333413;19;110144;-75
2024/01/07 02:31:13;;;;;;;;;;;3.50;99.90;;;;;;7328866;19;109775;-70
2024/01/07 02:33:40;;;;;;;;;;;3.40;99.90;;;;;;7329563;19;109109;-71
2024/01/07 02:36:08;;;;;;;;;;;3.40;99.90;;;;;;7329956;19;109762;-71
2024/01/07 02:38:35;;;;;;;;;;;3.50;99.90;;;;;;7338608;19;108688;-70
2024/01/07 02:41:02;;;;;;;;;;;3.40;99.90;;;;;;7326971;19;110217;-70
2024/01/07 02:43:29;;;;;;;;;;;3.40;99.90;;;;;;7333415;19;108742;-70
2024/01/07 02:45:56;;;;;;;;;;;3.50;99.90;;;;;;7326716;19;111265;-71
2024/01/07 02:48:24;;;;;;;;;;;3.60;99.90;;;;;;7328494;19;109887;-74
2024/01/07 02:50:52;;;;;;;;;;;3.60;99.90;;;;;;7327395;19;108731;-71
2024/01/07 02:53:19;;;;;;;;;;;3.60;99.90;;;;;;7332627;19;108888;-70
2024/01/07 02:55:46;;;;;;;;;;;3.50;99.90;;;;;;7330794;19;110316;-71
2024/01/07 02:58:13;;;;;;;;;;;3.50;99.90;;;;;;7330429;19;108470;-70
2024/01/07 03:00:40;;;;;;;;;;;3.50;99.90;;;;;;7337872;19;112546;-70
2024/01/07 03:03:07;;;;;;;;;;;3.60;99.90;;;;;;7330214;19;108504;-71
2024/01/07 03:05:35;;;;;;;;;;;3.60;99.90;;;;;;7331207;19;108620;-72
2024/01/07 03:08:02;;;;;;;;;;;3.60;99.90;;;;;;7335152;19;109210;-72
2024/01/07 03:10:29;;;;;;;;;;;3.60;99.90;;;;;;7339080;19;109373;-72
2024/01/07 03:12:56;;;;;;;;;;;3.50;99.90;;;;;;7336685;19;109093;-71
2024/01/07 03:15:23;;;;;;;;;;;3.60;99.90;;;;;;7337680;19;110270;-71
2024/01/07 03:17:50;;;;;;;;;;;3.60;99.90;;;;;;7334415;19;111136;-70
2024/01/07 03:20:18;;;;;;;;;;;3.60;99.90;;;;;;7337693;19;108730;-74
2024/01/07 03:22:45;;;;;;;;;;;3.60;99.90;;;;;;7342438;19;110353;-77
2024/01/07 03:25:12;;;;;;;;;;;3.60;99.90;;;;;;7339090;19;110009;-78
2024/01/07 03:27:39;;;;;;;;;;;3.60;99.90;;;;;;7336331;19;109600;-71
2024/01/07 03:30:06;;;;;;;;;;;3.60;99.90;;;;;;7336566;19;110752;-72
2024/01/07 03:32:33;;;;;;;;;;;3.60;99.90;;;;;;7337187;19;109969;-71
2024/01/07 03:35:01;;;;;;;;;;;3.70;99.90;;;;;;7335204;19;109460;-71
2024/01/07 03:37:28;;;;;;;;;;;3.60;99.90;;;;;;7336764;19;108933;-71
2024/01/07 03:39:55;;;;;;;;;;;3.70;99.90;;;;;;7334459;19;108656;-72
2024/01/07 03:42:23;;;;;;;;;;;3.70;99.90;;;;;;7337186;19;109528;-72
2024/01/07 03:44:50;;;;;;;;;;;3.70;99.90;;;;;;7343185;19;108374;-71
2024/01/07 03:47:17;;;;;;;;;;;3.60;99.90;;;;;;7334217;19;110204;-71
2024/01/07 03:49:44;;;;;;;;;;;3.60;99.90;;;;;;7336109;19;110622;-70
2024/01/07 03:52:12;;;;;;;;;;;3.60;99.90;;;;;;7337017;19;109559;-71
2024/01/07 03:54:39;;;;;;;;;;;3.60;99.90;;;;;;7334912;19;110598;-71
2024/01/07 03:57:06;;;;;;;;;;;3.50;99.90;;;;;;7335555;19;110113;-73
2024/01/07 03:59:33;;;;;;;;;;;3.40;99.90;;;;;;7337351;19;109381;-71
2024/01/07 04:02:00;;;;;;;;;;;3.40;99.90;;;;;;7336235;19;110641;-70
2024/01/07 04:04:27;;;;;;;;;;;3.40;99.90;;;;;;7336121;19;108742;-70
2024/01/07 04:06:54;;;;;;;;;;;3.40;99.90;;;;;;7340704;19;109686;-73
2024/01/07 04:09:22;;;;;;;;;;;3.40;99.90;;;;;;7336412;19;108772;-70
2024/01/07 04:11:49;;;;;;;;;;;3.40;99.90;;;;;;7330696;19;110165;-71
2024/01/07 04:14:16;;;;;;;;;;;3.40;99.90;;;;;;7334525;19;109962;-70
2024/01/07 04:16:43;;;;;;;;;;;3.40;99.90;;;;;;7333127;19;108744;-70
2024/01/07 04:19:10;;;;;;;;;;;3.40;99.90;;;;;;7336542;19;110699;-70
2024/01/07 04:21:37;;;;;;;;;;;3.40;99.90;;;;;;7332442;19;110332;-70
2024/01/07 04:24:05;;;;;;;;;;;3.40;99.90;;;;;;7336146;19;108501;-71
2024/01/07 04:26:32;;;;;;;;;;;3.40;99.90;;;;;;7335967;19;109436;-70
2024/01/07 04:28:59;;;;;;;;;;;3.40;99.90;;;;;;7340706;19;110634;-69
2024/01/07 04:31:26;;;;;;;;;;;3.40;99.90;;;;;;7335701;19;110307;-70
2024/01/07 04:33:53;;;;;;;;;;;3.50;99.90;;;;;;7334613;19;111792;-69
2024/01/07 04:36:20;;;;;;;;;;;3.50;99.90;;;;;;7336711;19;111032;-69
2024/01/07 04:38:47;;;;;;;;;;;3.40;99.90;;;;;;7334016;19;108434;-70
2024/01/07 04:41:14;;;;;;;;;;;3.40;99.90;;;;;;7336206;19;109513;-69
2024/01/07 04:43:42;;;;;;;;;;;3.30;99.90;;;;;;7334701;19;109638;-69
2024/01/07 04:46:10;;;;;;;;;;;3.30;99.90;;;;;;7332226;19;109269;-69
2024/01/07 04:48:37;;;;;;;;;;;3.40;99.90;;;;;;7336556;19;110585;-69
2024/01/07 04:51:05;;;;;;;;;;;3.40;99.90;;;;;;7333048;19;109438;-69
2024/01/07 04:53:34;;;;;;;;;;;3.40;99.90;;;;;;7332702;19;110407;-69
2024/01/07 04:56:02;;;;;;;;;;;3.30;99.90;;;;;;7331015;19;110622;-69
2024/01/07 04:58:29;;;;;;;;;;;3.30;99.90;;;;;;7336326;19;111259;-69
2024/01/07 05:00:56;;;;;;;;;;;3.30;99.90;;;;;;7331271;19;110111;-69
2024/01/07 05:03:24;;;;;;;;;;;3.20;99.90;;;;;;7334227;19;109803;-69
2024/01/07 05:05:51;;;;;;;;;;;3.30;99.90;;;;;;7330879;19;109397;-69
2024/01/07 05:08:21;;;;;;;;;;;3.30;99.90;;;;;;7331376;19;110461;-68
2024/01/07 05:10:52;;;;;;;;;;;3.30;99.90;;;;;;7336488;19;109426;-69
2024/01/07 05:13:19;;;;;;;;;;;3.30;99.90;;;;;;7331121;19;109917;-70
2024/01/07 05:15:53;;;;;;;;;;;3.30;99.90;;;;;;7328651;19;109617;-69
2024/01/07 05:18:22;;;;;;;;;;;3.30;99.90;;;;;;7330842;19;109704;-69
2024/01/07 05:20:49;;;;;;;;;;;3.20;99.90;;;;;;7329329;19;109539;-69
2024/01/07 05:23:17;;;;;;;;;;;3.20;99.90;;;;;;7331670;19;108430;-69
2024/01/07 05:25:44;;;;;;;;;;;3.20;99.90;;;;;;7335857;19;110205;-69
2024/01/07 05:28:11;;;;;;;;;;;3.20;99.90;;;;;;7331528;19;109626;-70
2024/01/07 05:30:39;;;;;;;;;;;3.10;99.90;;;;;;7333517;19;108810;-70
2024/01/07 05:33:06;;;;;;;;;;;3.20;99.90;;;;;;7338491;19;109168;-74
2024/01/07 05:35:33;;;;;;;;;;;3.10;99.90;;;;;;7332785;19;108382;-73
2024/01/07 05:38:00;;;;;;;;;;;3.10;99.90;;;;;;7331557;19;108476;-72
2024/01/07 05:40:27;;;;;;;;;;;3.00;99.90;;;;;;7334792;19;109104;-72
2024/01/07 05:42:55;;;;;;;;;;;3.00;99.90;;;;;;7332232;19;109320;-73
2024/01/07 05:45:22;;;;;;;;;;;3.00;99.90;;;;;;7335870;19;108741;-70
2024/01/07 05:47:49;;;;;;;;;;;3.00;99.90;;;;;;7331040;19;109736;-71
2024/01/07 05:50:18;;;;;;;;;;;3.00;99.90;;;;;;7332535;19;110810;-70
2024/01/07 05:52:46;;;;;;;;;;;3.00;99.90;;;;;;7333235;19;109649;-69
2024/01/07 05:55:13;;;;;;;;;;;3.00;99.90;;;;;;7340237;19;111002;-68
2024/01/07 05:57:40;;;;;;;;;;;3.00;99.90;;;;;;7333848;19;112402;-69
2024/01/07 06:00:07;;;;;;;;;;;3.10;99.90;;;;;;7330454;19;110528;-69
2024/01/07 06:02:34;;;;;;;;;;;3.10;99.90;;;;;;7332278;19;109061;-69
2024/01/07 06:05:02;;;;;;;;;;;3.10;99.90;;;;;;7329885;19;110445;-69
2024/01/07 06:07:30;;;;;;;;;;;3.20;99.90;;;;;;7335189;19;109842;-69
2024/01/07 06:09:58;;;;;;;;;;;3.10;99.90;;;;;;7327468;19;109866;-68
2024/01/07 06:12:25;;;;;;;;;;;3.10;99.90;;;;;;7328222;19;108605;-71
2024/01/07 06:14:55;;;;;;;;;;;3.10;99.90;;;;;;7331008;19;110168;-69
2024/01/07 06:17:22;;;;;;;;;;;3.20;99.90;;;;;;7335806;19;108684;-69
2024/01/07 06:19:51;;;;;;;;;;;3.20;99.90;;;;;;7332486;19;109230;-70
2024/01/07 06:22:19;;;;;;;;;;;3.20;99.90;;;;;;7332196;19;109401;-68
2024/01/07 06:24:46;;;;;;;;;;;3.20;99.90;;;;;;7333220;19;111627;-68
2024/01/07 06:27:13;;;;;;;;;;;3.20;99.90;;;;;;7333609;19;110993;-70
2024/01/07 06:29:40;;;;;;;;;;;3.20;99.90;;;;;;7329767;19;108741;-71
2024/01/07 06:32:09;;;;;;;;;;;3.20;99.90;;;;;;7327490;19;109725;-68
2024/01/07 06:34:36;;;;;;;;;;;3.10;99.90;;;;;;7332047;19;109286;-69
2024/01/07 06:37:05;;;;;;;;;;;3.10;99.90;;;;;;7331540;19;108696;-69
2024/01/07 06:39:34;;;;;;;;;;;3.10;99.90;;;;;;7335356;19;110209;-70
2024/01/07 06:42:01;;;;;;;;;;;3.20;99.90;;;;;;7336989;19;109342;-71
2024/01/07 06:44:28;;;;;;;;;;;3.20;99.90;;;;;;7339733;19;108642;-74
2024/01/07 06:46:55;;;;;;;;;;;3.20;99.90;;;;;;7336052;19;109873;-76
2024/01/07 06:49:22;;;;;;;;;;;3.10;99.90;;;;;;7339497;19;108770;-77
2024/01/07 06:51:50;;;;;;;;;;;3.10;99.90;;;;;;7335468;19;109072;-71
2024/01/07 06:54:17;;;;;;;;;;;3.10;99.90;;;;;;7335882;19;110311;-70
2024/01/07 06:56:44;;;;;;;;;;;3.10;99.90;;;;;;7335864;19;109250;-70
2024/01/07 06:59:11;;;;;;;;;;;3.10;99.90;;;;;;7345564;19;110323;-71
2024/01/07 07:01:38;;;;;;;;;;;3.10;99.90;;;;;;7338179;19;109926;-69
2024/01/07 07:04:06;;;;;;;;;;;3.10;99.90;;;;;;7338988;19;109420;-70
2024/01/07 07:06:34;;;;;;;;;;;3.10;99.90;;;;;;7336385;19;109800;-70
2024/01/07 07:09:01;;;;;;;;;;;3.10;99.90;;;;;;7335094;19;108954;-70
2024/01/07 07:11:29;;;;;;;;;;;3.10;99.90;;;;;;7335770;19;109292;-72
2024/01/07 07:13:59;;;;;;;;;;;3.20;99.90;;;;;;7335673;19;109315;-70
2024/01/07 07:16:29;;;;;;;;;;;3.20;99.90;;;;;;7333989;19;109999;-70
2024/01/07 07:18:56;;;;;;;;;;;3.20;99.90;;;;;;7335765;19;109046;-71
2024/01/07 07:21:23;;;;;;;;;;;3.20;99.90;;;;;;7339428;19;109556;-70
2024/01/07 07:23:50;;;;;;;;;;;3.10;99.90;;;;;;7336054;19;109480;-71
2024/01/07 07:26:18;;;;;;;;;;;3.10;99.90;;;;;;7335559;19;110121;-70
2024/01/07 07:28:45;;;;;;;;;;;3.10;99.90;;;;;;7336679;19;111461;-71
2024/01/07 07:31:12;;;;;;;;;;;3.10;99.90;;;;;;7338592;19;108562;-72
2024/01/07 07:33:40;;;;;;;;;;;3.10;99.90;;;;;;7333530;19;111092;-72
2024/01/07 07:36:07;;;;;;;;;;;3.10;99.90;;;;;;7334253;19;108923;-72
2024/01/07 07:38:35;;;;;;;;;;;3.00;99.90;;;;;;7334557;19;109257;-72
2024/01/07 07:41:02;;;;;;;;;;;3.00;99.90;;;;;;7333404;19;110071;-72
2024/01/07 07:43:29;;;;;;;;;;;3.00;99.90;;;;;;7340214;19;109377;-72
2024/01/07 07:45:56;;;;;;;;;;;2.90;99.90;;;;;;7331580;19;113699;-72
2024/01/07 07:48:24;;;;;;;;;;;3.00;99.90;;;;;;7335278;19;108486;-71
2024/01/07 07:50:51;;;;;;;;;;;2.90;99.90;;;;;;7331225;19;110394;-72
2024/01/07 07:53:18;;;;;;;;;;;2.90;99.90;;;;;;7330539;19;110429;-71
2024/01/07 07:55:45;;;;;;;;;;;2.90;99.90;;;;;;7333501;19;109915;-72
2024/01/07 07:58:13;;;;;;;;;;;2.90;99.90;;;;;;7334482;19;108741;-72
2024/01/07 08:00:40;;;;;;;;;;;2.90;99.90;;;;;;7329227;19;113554;-71
2024/01/07 08:03:07;;;;;;;;;;;2.80;99.90;;;;;;7331282;19;109093;-72
2024/01/07 08:05:34;;;;;;;;;;;2.90;99.90;;;;;;7339521;19;108933;-71
2024/01/07 08:08:01;;;;;;;;;;;2.90;99.90;;;;;;7330119;19;108768;-72
2024/01/07 08:10:31;;;;;;;;;;;2.90;99.90;;;;;;7334082;19;108667;-71
2024/01/07 08:12:58;;;;;;;;;;;2.80;99.90;;;;;;7334166;19;109749;-71
2024/01/07 08:15:26;;;;;;;;;;;2.80;99.90;;;;;;7327213;19;109000;-71
2024/01/07 08:17:53;;;;;;;;;;;2.80;99.90;;;;;;7329613;19;108649;-72
2024/01/07 08:20:20;;;;;;;;;;;2.80;99.90;;;;;;7333700;19;111052;-71
2024/01/07 08:22:48;;;;;;;;;;;2.80;99.90;;;;;;7333276;19;110306;-71
2024/01/07 08:25:15;;;;;;;;;;;2.80;99.90;;;;;;7332690;19;114171;-71
2024/01/07 08:27:43;;;;;;;;;;;2.70;99.90;;;;;;7335746;19;109070;-71
2024/01/07 08:30:13;;;;;;;;;;;2.70;99.90;;;;;;7333353;19;109177;-73
2024/01/07 08:32:40;;;;;;;;;;;2.70;99.90;;;;;;7332026;19;109467;-77
2024/01/07 08:35:09;;;;;;;;;;;2.70;99.90;;;;;;7334670;19;109549;-77
2024/01/07 08:37:36;;;;;;;;;;;2.60;99.90;;;;;;7331697;19;109250;-73
2024/01/07 08:40:03;;;;;;;;;;;2.70;99.90;;;;;;7332625;19;110170;-71
2024/01/07 08:42:30;;;;;;;;;;;2.70;99.90;;;;;;7332080;19;109294;-71
2024/01/07 08:45:00;;;;;;;;;;;2.70;99.90;;;;;;7331520;19;109131;-73
2024/01/07 08:47:28;;;;;;;;;;;2.80;99.90;;;;;;7333099;19;109983;-71
2024/01/07 08:49:55;;;;;;;;;;;2.70;99.90;;;;;;7334587;19;108856;-72
2024/01/07 08:52:23;;;;;;;;;;;2.70;99.90;;;;;;7331020;19;109424;-72
2024/01/07 08:54:50;;;;;;;;;;;2.70;99.90;;;;;;7330677;19;109006;-70
2024/01/07 08:57:18;;;;;;;;;;;2.70;99.90;;;;;;7330043;19;109746;-71
2024/01/07 08:59:45;;;;;;;;;;;2.70;99.90;;;;;;7332668;19;109169;-72
2024/01/07 09:02:13;;;;;;;;;;;2.70;99.90;;;;;;7327739;19;109855;-72
2024/01/07 09:04:40;;;;;;;;;;;2.70;99.90;;;;;;7329881;19;109035;-72
2024/01/07 09:07:07;;;;;;;;;;;2.70;99.90;;;;;;7332369;19;110201;-71
2024/01/07 09:09:34;;;;;;;;;;;2.70;99.90;;;;;;7339397;19;109682;-71
2024/01/07 09:12:03;;;;;;;;;;;2.70;99.90;;;;;;7333269;19;110134;-71
2024/01/07 09:14:30;;;;;;;;;;;2.70;99.90;;;;;;7330167;19;108549;-72
2024/01/07 09:16:57;;;;;;;;;;;2.70;99.90;;;;;;7328407;19;109881;-74
2024/01/07 09:19:24;;;;;;;;;;;2.70;99.90;;;;;;7330901;19;110214;-71
2024/01/07 09:21:52;;;;;;;;;;;2.70;99.90;;;;;;7327245;19;109939;-71
2024/01/07 09:24:19;;;;;;;;;;;2.70;99.90;;;;;;7334369;19;109689;-72
2024/01/07 09:26:46;;;;;;;;;;;2.60;99.90;;;;;;7328671;19;110114;-72
2024/01/07 09:29:13;;;;;;;;;;;2.60;99.90;;;;;;7331293;19;109586;-73
2024/01/07 09:31:41;;;;;;;;;;;2.70;99.90;;;;;;7335849;19;108651;-71
2024/01/07 09:34:08;;;;;;;;;;;2.70;99.90;;;;;;7329340;19;109104;-71
2024/01/07 09:36:36;;;;;;;;;;;2.60;99.90;;;;;;7329382;19;108901;-72
2024/01/07 09:39:05;;;;;;;;;;;2.60;99.90;;;;;;7330027;19;110436;-71
2024/01/07 09:41:33;;;;;;;;;;;2.60;99.90;;;;;;7328273;19;109016;-75
2024/01/07 09:44:01;;;;;;;;;;;2.60;99.90;;;;;;7328753;19;109271;-75
2024/01/07 09:46:30;;;;;;;;;;;2.60;99.90;;;;;;7328925;19;110201;-65
2024/01/07 09:48:57;;;;;;;;;;;2.70;99.90;;;;;;7329029;19;109425;-66
2024/01/07 09:51:25;;;;;;;;;;;2.70;99.90;;;;;;7331652;19;108960;-66
2024/01/07 09:53:56;;;;;;;;;;;2.80;99.90;;;;;;7333336;19;110073;-66
2024/01/07 09:56:25;;;;;;;;;;;2.70;99.90;;;;;;7332006;19;109128;-66
2024/01/07 09:58:52;;;;;;;;;;;2.70;99.90;;;;;;7329412;19;110040;-66
2024/01/07 10:01:19;;;;;;;;;;;2.70;99.90;;;;;;7332527;19;108640;-65
2024/01/07 10:03:47;;;;;;;;;;;2.80;99.90;;;;;;7330463;19;110964;-66
2024/01/07 10:06:17;;;;;;;;;;;2.80;99.90;;;;;;7329519;19;111673;-66
2024/01/07 10:08:44;;;;;;;;;;;2.80;99.90;;;;;;7329968;19;109491;-65
2024/01/07 10:11:13;;;;;;;;;;;2.80;99.90;;;;;;7330032;19;109770;-65
2024/01/07 10:13:40;;;;;;;;;;;2.80;99.90;;;;;;7329931;19;110468;-65
2024/01/07 10:16:08;;;;;;;;;;;2.80;99.90;;;;;;7333979;19;109951;-65
2024/01/07 10:18:36;;;;;;;;;;;2.80;99.90;;;;;;7329357;19;109230;-65
2024/01/07 10:21:06;;;;;;;;;;;2.70;99.90;;;;;;7329985;19;108575;-66
2024/01/07 10:23:33;;;;;;;;;;;2.60;99.90;;;;;;7330595;19;108715;-65
2024/01/07 10:26:02;;;;;;;;;;;2.60;99.90;;;;;;7328372;19;110048;-65
2024/01/07 10:28:43;;;;;;;;;;;2.60;99.90;;;;;;7329166;19;108608;-65
2024/01/07 10:31:10;;;;;;;;;;;2.50;99.90;;;;;;7328562;19;109387;-65
2024/01/07 10:33:38;;;;;;;;;;;2.50;99.90;;;;;;7330055;19;109993;-65
2024/01/07 10:36:05;;;;;;;;;;;2.50;99.90;;;;;;7325167;19;110337;-65
2024/01/07 10:38:33;;;;;;;;;;;2.50;99.90;;;;;;7335807;19;109401;-66
2024/01/07 10:41:01;;;;;;;;;;;2.50;99.90;;;;;;7327709;19;109977;-65
2024/01/07 10:43:29;;;;;;;;;;;2.60;99.90;;;;;;7328022;19;109517;-65
2024/01/07 10:46:00;;;;;;;;;;;2.60;99.90;;;;;;7324031;19;109533;-65
2024/01/07 10:48:30;;;;;;;;;;;2.70;99.90;;;;;;7328515;19;108945;-66
2024/01/07 10:50:59;;;;;;;;;;;2.70;99.90;;;;;;7329291;19;108992;-65
2024/01/07 10:53:32;;;;;;;;;;;2.70;99.90;;;;;;7326229;19;110232;-65
2024/01/07 10:56:03;;;;;;;;;;;2.60;99.90;;;;;;7328683;19;118751;-65
2024/01/07 10:58:33;;;;;;;;;;;2.70;99.90;;;;;;7334321;19;109408;-65
2024/01/07 11:01:03;;;;;;;;;;;2.70;99.90;;;;;;7328571;19;109375;-66
2024/01/07 11:03:37;;;;;;;;;;;2.70;99.90;;;;;;7327939;19;109078;-65
2024/01/07 11:06:13;;;;;;;;;;;2.70;99.90;;;;;;7329131;19;111260;-69
2024/01/07 11:09:06;;;;;;;;;;;2.70;99.90;;;;;;7327563;19;109081;-66
2024/01/07 11:11:41;;;;;;;;;;;2.70;99.90;;;;;;7327063;19;108908;-69
2024/01/07 11:14:26;;;;;;;;;;;2.70;99.90;;;;;;7328073;19;109427;-71
2024/01/07 11:16:53;;;;;;;;;;;2.60;99.90;;;;;;7328906;19;108828;-66
2024/01/07 11:19:20;;;;;;;;;;;2.60;99.90;;;;;;7327670;19;108891;-65
2024/01/07 11:21:48;;;;;;;;;;;2.60;99.90;;;;;;7329942;19;110025;-66
2024/01/07 11:24:33;;;;;;;;;;;2.60;99.90;;;;;;7329454;19;110721;-66
2024/01/07 11:27:03;;;;;;;;;;;2.60;99.90;;;;;;7328328;19;109885;-65
2024/01/07 11:29:34;;;;;;;;;;;2.70;99.90;;;;;;7334764;19;109299;-66
2024/01/07 11:32:02;;;;;;;;;;;2.70;99.90;;;;;;7333982;19;109593;-66
2024/01/07 11:34:46;;;;;;;;;;;2.70;99.90;;;;;;7331115;19;109136;-65
2024/01/07 11:37:13;;;;;;;;;;;2.70;99.90;;;;;;7332337;19;110597;-65
2024/01/07 11:39:44;;;;;;;;;;;2.70;99.90;;;;;;7332447;19;108682;-66
2024/01/07 11:42:12;;;;;;;;;;;2.70;99.90;;;;;;7328038;19;109549;-65
2024/01/07 11:44:52;;;;;;;;;;;2.70;99.90;;;;;;7339392;19;109526;-65
2024/01/07 11:47:20;;;;;;;;;;;2.80;99.90;;;;;;7329687;19;113004;-66
2024/01/07 11:49:49;;;;;;;;;;;2.80;99.90;;;;;;7335367;19;109449;-65
2024/01/07 11:52:16;;;;;;;;;;;2.80;99.90;;;;;;7332968;19;109768;-65
2024/01/07 11:54:44;;;;;;;;;;;2.70;99.90;;;;;;7335432;19;109098;-65
2024/01/07 11:57:11;;;;;;;;;;;2.60;99.90;;;;;;7334721;19;110433;-66
2024/01/07 11:59:38;;;;;;;;;;;2.50;99.90;;;;;;7337515;19;109244;-65
2024/01/07 12:02:09;;;;;;;;;;;2.40;99.90;;;;;;7333028;19;109053;-65
2024/01/07 12:04:36;;;;;;;;;;;2.40;99.90;;;;;;7332372;19;108862;-65
2024/01/07 12:07:04;;;;;;;;;;;2.40;99.90;;;;;;7340156;19;109119;-65
2024/01/07 12:09:31;;;;;;;;;;;2.40;99.90;;;;;;7336186;19;110512;-66
2024/01/07 12:12:00;;;;;;;;;;;2.30;99.90;;;;;;7333745;19;110436;-65
2024/01/07 12:14:28;;;;;;;;;;;2.40;99.90;;;;;;7332314;19;109425;-66
2024/01/07 12:16:55;;;;;;;;;;;2.40;99.90;;;;;;7331767;19;108746;-65
2024/01/07 12:19:23;;;;;;;;;;;2.40;99.90;;;;;;7334175;19;108800;-65
2024/01/07 12:22:01;;;;;;;;;;;2.40;99.90;;;;;;7329809;19;112027;-66
2024/01/07 12:24:29;;;;;;;;;;;2.40;99.90;;;;;;7332086;19;111126;-67
2024/01/07 12:26:56;;;;;;;;;;;2.40;99.90;;;;;;7333435;19;108474;-66
2024/01/07 12:29:25;;;;;;;;;;;2.40;99.90;;;;;;7337404;19;110498;-66
2024/01/07 12:31:53;;;;;;;;;;;2.40;99.90;;;;;;7331596;19;110644;-69
2024/01/07 12:34:23;;;;;;;;;;;2.40;99.90;;;;;;7329054;19;110001;-66
2024/01/07 12:36:53;;;;;;;;;;;2.40;99.90;;;;;;7353898;19;108456;-94
2024/01/07 12:39:20;;;;;;;;;;;2.40;99.90;;;;;;7372855;19;107923;-90
2024/01/07 12:41:51;;;;;;;;;;;2.40;99.90;;;;;;7348489;19;110017;-89
2024/01/07 12:44:19;;;;;;;;;;;2.50;99.90;;;;;;7347275;19;108701;-90
2024/01/07 12:46:48;;;;;;;;;;;2.50;99.90;;;;;;7344244;19;110117;-91
2024/01/07 12:49:15;;;;;;;;;;;2.60;99.90;;;;;;7336632;19;110269;-89
2024/01/07 12:51:42;;;;;;;;;;;2.60;99.90;;;;;;7342931;19;108546;-89
2024/01/07 12:54:11;;;;;;;;;;;2.60;99.90;;;;;;7336865;19;111169;-89
2024/01/07 12:56:38;;;;;;;;;;;2.60;99.90;;;;;;7335640;19;108447;-90
2024/01/07 12:59:05;;;;;;;;;;;2.60;99.90;;;;;;7342457;19;108770;-91
2024/01/07 13:01:32;;;;;;;;;;;2.60;99.90;;;;;;7337712;19;113012;-92
2024/01/07 13:04:00;;;;;;;;;;;2.60;99.90;;;;;;7336888;19;109838;-91
2024/01/07 13:06:27;;;;;;;;;;;2.60;99.90;;;;;;7341358;19;108988;-66
2024/01/07 13:08:55;;;;;;;;;;;2.60;99.90;;;;;;7331343;19;110406;-66
2024/01/07 13:11:22;;;;;;;;;;;2.60;99.90;;;;;;7337137;19;109267;-66
2024/01/07 13:13:49;;;;;;;;;;;2.60;99.90;;;;;;7333436;19;111697;-66
2024/01/07 13:16:18;;;;;;;;;;;2.60;99.90;;;;;;7330379;19;108653;-66
2024/01/07 13:18:46;;;;;;;;;;;2.60;99.90;;;;;;7331054;19;109606;-66
2024/01/07 13:21:13;;;;;;;;;;;2.50;99.90;;;;;;7329876;19;110226;-66
2024/01/07 13:23:43;;;;;;;;;;;2.50;99.90;;;;;;7333427;19;108534;-66
2024/01/07 13:26:11;;;;;;;;;;;2.50;99.90;;;;;;7327536;19;112262;-65
2024/01/07 13:28:38;;;;;;;;;;;2.50;99.90;;;;;;7328622;19;109154;-66
2024/01/07 13:31:06;;;;;;;;;;;2.50;99.90;;;;;;7331868;19;110827;-66
2024/01/07 13:33:33;;;;;;;;;;;2.50;99.90;;;;;;7336162;19;110464;-66
2024/01/07 13:36:02;;;;;;;;;;;2.60;99.90;;;;;;7321880;19;109199;-66
2024/01/07 13:38:30;;;;;;;;;;;2.60;99.90;;;;;;7331692;19;108705;-66
2024/01/07 13:40:57;;;;;;;;;;;2.50;99.90;;;;;;7330857;19;110135;-67
2024/01/07 13:43:27;;;;;;;;;;;2.60;99.90;;;;;;7331689;19;108538;-66
2024/01/07 13:45:54;;;;;;;;;;;2.60;99.90;;;;;;7331253;19;109132;-66
2024/01/07 13:48:22;;;;;;;;;;;2.60;99.90;;;;;;7329751;19;109702;-66
2024/01/07 13:50:49;;;;;;;;;;;2.60;99.90;;;;;;7327357;19;109639;-66
2024/01/07 13:53:16;;;;;;;;;;;2.60;99.90;;;;;;7329056;19;109944;-66
2024/01/07 13:55:44;;;;;;;;;;;2.60;99.90;;;;;;7335005;19;108878;-66
2024/01/07 13:58:12;;;;;;;;;;;2.50;99.90;;;;;;7331001;19;108664;-66
2024/01/07 14:00:39;;;;;;;;;;;2.60;99.90;;;;;;7330355;19;110268;-66
2024/01/07 14:03:06;;;;;;;;;;;2.60;99.90;;;;;;7329808;19;110860;-66
2024/01/07 14:05:33;;;;;;;;;;;2.60;99.90;;;;;;7329287;19;109968;-66
2024/01/07 14:08:00;;;;;;;;;;;2.60;99.90;;;;;;7326458;19;109218;-66
2024/01/07 14:10:29;;;;;;;;;;;2.60;99.90;;;;;;7328737;19;108795;-66
2024/01/07 14:12:56;;;;;;;;;;;2.50;99.90;;;;;;7327247;19;109329;-66
2024/01/07 14:15:23;;;;;;;;;;;2.50;99.90;;;;;;7330771;19;109271;-66
2024/01/07 14:17:50;;;;;;;;;;;2.50;99.90;;;;;;7332720;19;109074;-66
2024/01/07 14:20:18;;;;;;;;;;;2.50;99.90;;;;;;7330012;19;109214;-66